createdAt,value
2019-04-07T00:01:19.815Z,10.02
2019-04-07T00:03:49.480Z,10.00
2019-04-07T00:06:19.078Z,9.99
2019-04-07T00:08:48.274Z,9.92
2019-04-07T00:11:17.541Z,9.85
2019-04-07T00:13:46.925Z,9.78
2019-04-07T00:16:16.757Z,9.74
2019-04-07T00:18:46.069Z,9.72
2019-04-07T00:21:15.258Z,9.70
2019-04-07T00:23:44.419Z,9.69
2019-04-07T00:26:13.548Z,9.67
2019-04-07T00:28:43.650Z,9.63
2019-04-07T00:31:13.379Z,9.58
2019-04-07T00:33:42.698Z,9.57
2019-04-07T00:36:11.797Z,9.57
2019-04-07T00:38:40.908Z,9.57
2019-04-07T00:41:10.201Z,9.54
2019-04-07T00:43:39.552Z,9.53
2019-04-07T00:46:08.902Z,9.45
2019-04-07T00:48:38.576Z,9.41
2019-04-07T00:51:08.190Z,9.34
2019-04-07T00:53:37.555Z,9.30
2019-04-07T00:56:06.693Z,9.27
2019-04-07T00:58:35.779Z,9.26
2019-04-07T01:01:06.555Z,9.26
2019-04-07T01:03:35.634Z,9.25
2019-04-07T01:06:05.085Z,9.23
2019-04-07T01:08:34.241Z,9.20
2019-04-07T01:11:03.517Z,9.19
2019-04-07T01:13:32.683Z,9.18
2019-04-07T01:16:01.818Z,9.15
2019-04-07T01:18:33.919Z,9.12
2019-04-07T01:21:03.738Z,9.09
2019-04-07T01:23:33.611Z,9.08
2019-04-07T01:26:03.210Z,9.07
2019-04-07T01:28:32.847Z,9.04
2019-04-07T01:31:02.345Z,8.96
2019-04-07T01:33:31.569Z,8.93
2019-04-07T01:36:00.834Z,8.90
2019-04-07T01:38:30.619Z,8.86
2019-04-07T01:41:19.525Z,8.82
2019-04-07T01:43:55.869Z,8.81
2019-04-07T01:46:56.045Z,8.71
2019-04-07T01:49:43.471Z,8.52
2019-04-07T01:52:34.841Z,8.39
2019-04-07T01:55:18.118Z,8.36
2019-04-07T01:58:04.844Z,8.37
2019-04-07T02:00:48.351Z,8.38
2019-04-07T02:03:51.541Z,8.40
2019-04-07T02:06:32.015Z,8.38
2019-04-07T02:09:22.577Z,8.38
2019-04-07T02:12:04.997Z,8.39
2019-04-07T02:14:56.352Z,8.41
2019-04-07T02:18:02.546Z,8.41
2019-04-07T02:21:01.054Z,8.37
2019-04-07T02:23:49.413Z,8.28
2019-04-07T02:26:55.677Z,8.18
2019-04-07T02:29:50.064Z,8.14
2019-04-07T02:32:38.279Z,8.15
2019-04-07T02:35:20.894Z,8.16
2019-04-07T02:37:58.446Z,8.16
2019-04-07T02:40:38.402Z,8.14
2019-04-07T02:43:15.944Z,8.09
2019-04-07T02:45:53.597Z,8.06
2019-04-07T02:48:47.629Z,8.03
2019-04-07T02:51:38.846Z,8.02
2019-04-07T02:54:22.789Z,8.01
2019-04-07T02:57:07.982Z,8.02
2019-04-07T03:00:02.440Z,8.01
2019-04-07T03:02:43.565Z,7.97
2019-04-07T03:05:42.275Z,7.93
2019-04-07T03:08:39.693Z,7.92
2019-04-07T03:11:16.090Z,7.87
2019-04-07T03:14:05.722Z,7.80
2019-04-07T03:16:44.013Z,7.76
2019-04-07T03:19:18.027Z,7.74
2019-04-07T03:22:00.949Z,7.71
2019-04-07T03:24:53.059Z,7.70
2019-04-07T03:27:28.290Z,7.69
2019-04-07T03:30:15.303Z,7.68
2019-04-07T03:33:05.153Z,7.67
2019-04-07T03:35:45.958Z,7.64
2019-04-07T03:38:33.535Z,7.61
2019-04-07T03:41:13.498Z,7.57
2019-04-07T03:43:51.577Z,7.55
2019-04-07T03:46:42.936Z,7.49
2019-04-07T03:49:23.623Z,7.43
2019-04-07T03:52:07.724Z,7.40
2019-04-07T03:55:11.037Z,7.37
2019-04-07T03:57:54.937Z,7.36
2019-04-07T04:01:13.702Z,7.40
2019-04-07T04:03:49.733Z,7.41
2019-04-07T04:06:38.792Z,7.38
2019-04-07T04:09:15.716Z,7.33
2019-04-07T04:11:58.408Z,7.29
2019-04-07T04:14:31.942Z,7.25
2019-04-07T04:17:02.038Z,7.22
2019-04-07T04:19:31.978Z,7.21
2019-04-07T04:22:01.936Z,7.19
2019-04-07T04:24:31.349Z,7.17
2019-04-07T04:27:01.003Z,7.17
2019-04-07T04:29:30.139Z,7.14
2019-04-07T04:31:59.737Z,7.14
2019-04-07T04:34:28.852Z,7.14
2019-04-07T04:36:58.053Z,7.13
2019-04-07T04:39:27.274Z,7.17
2019-04-07T04:41:56.396Z,7.10
2019-04-07T04:44:25.764Z,7.03
2019-04-07T04:46:54.873Z,7.00
2019-04-07T04:49:23.980Z,6.98
2019-04-07T04:51:54.024Z,6.90
2019-04-07T04:54:23.388Z,6.93
2019-04-07T04:56:53.463Z,6.91
2019-04-07T04:59:22.751Z,6.93
2019-04-07T05:01:51.860Z,6.93
2019-04-07T05:04:21.592Z,6.86
2019-04-07T05:06:51.560Z,6.85
2019-04-07T05:09:21.120Z,6.81
2019-04-07T05:11:50.604Z,6.80
2019-04-07T05:14:20.407Z,6.81
2019-04-07T05:16:49.535Z,6.81
2019-04-07T05:19:19.240Z,6.80
2019-04-07T05:21:48.471Z,6.83
2019-04-07T05:24:17.991Z,6.86
2019-04-07T05:26:48.538Z,6.90
2019-04-07T05:29:17.904Z,6.94
2019-04-07T05:31:47.841Z,6.97
2019-04-07T05:34:20.564Z,7.02
2019-04-07T05:36:47.900Z,7.06
2019-04-07T05:39:17.415Z,7.10
2019-04-07T05:41:48.161Z,7.10
2019-04-07T05:44:17.854Z,7.14
2019-04-07T05:46:49.463Z,7.17
2019-04-07T05:49:18.672Z,7.23
2019-04-07T05:51:48.630Z,7.32
2019-04-07T05:54:19.758Z,7.36
2019-04-07T05:56:49.234Z,7.43
2019-04-07T05:59:18.458Z,7.51
2019-04-07T06:01:49.880Z,7.59
2019-04-07T06:04:19.237Z,7.68
2019-04-07T06:06:52.685Z,7.76
2019-04-07T06:09:20.763Z,7.82
2019-04-07T06:11:50.051Z,7.90
2019-04-07T06:14:19.339Z,7.97
2019-04-07T06:16:52.533Z,8.05
2019-04-07T06:19:19.332Z,8.10
2019-04-07T06:21:49.612Z,8.20
2019-04-07T06:24:21.817Z,8.30
2019-04-07T06:26:50.363Z,8.41
2019-04-07T06:29:20.024Z,8.55
2019-04-07T06:31:49.525Z,8.67
2019-04-07T06:34:18.795Z,8.80
2019-04-07T06:36:51.641Z,8.94
2019-04-07T06:39:19.931Z,9.08
2019-04-07T06:41:49.202Z,9.24
2019-04-07T06:44:20.960Z,8.77
2019-04-07T06:47:09.790Z,9.51
2019-04-07T06:49:50.996Z,9.66
2019-04-07T06:52:41.039Z,9.83
2019-04-07T06:55:33.375Z,10.02
2019-04-07T06:58:38.438Z,10.23
2019-04-07T07:01:30.659Z,10.43
2019-04-07T07:04:25.399Z,10.83
2019-04-07T07:07:15.924Z,11.40
2019-04-07T07:10:00.141Z,12.63
2019-04-07T07:12:47.668Z,14.82
2019-04-07T07:15:39.640Z,17.06
2019-04-07T07:18:28.358Z,18.74
2019-04-07T07:21:03.743Z,20.04
2019-04-07T07:23:36.422Z,21.17
2019-04-07T07:26:06.058Z,22.26
2019-04-07T07:28:36.032Z,23.47
2019-04-07T07:31:05.761Z,24.64
2019-04-07T07:33:38.929Z,25.67
2019-04-07T07:36:05.760Z,26.46
2019-04-07T07:38:34.903Z,27.19
2019-04-07T07:41:04.793Z,27.96
2019-04-07T07:43:34.217Z,28.31
2019-04-07T07:46:03.432Z,28.58
2019-04-07T07:48:32.599Z,29.08
2019-04-07T07:51:02.406Z,29.57
2019-04-07T07:53:31.673Z,29.98
2019-04-07T07:56:01.007Z,30.32
2019-04-07T07:58:32.727Z,30.66
2019-04-07T08:01:01.427Z,31.12
2019-04-07T08:03:31.464Z,31.46
2019-04-07T08:06:04.671Z,31.71
2019-04-07T08:08:31.670Z,31.83
2019-04-07T08:11:02.632Z,31.97
2019-04-07T08:13:32.477Z,32.14
2019-04-07T08:16:02.003Z,31.96
2019-04-07T08:18:31.195Z,31.40
2019-04-07T08:21:00.376Z,31.23
2019-04-07T08:23:29.685Z,30.84
2019-04-07T08:25:59.134Z,30.59
2019-04-07T08:28:28.333Z,30.58
2019-04-07T08:30:57.642Z,30.21
2019-04-07T08:33:28.759Z,30.28
2019-04-07T08:35:57.988Z,29.97
2019-04-07T08:38:28.220Z,29.73
2019-04-07T08:40:57.718Z,29.90
2019-04-07T08:43:27.589Z,29.71
2019-04-07T08:45:56.873Z,29.02
2019-04-07T08:48:26.794Z,28.78
2019-04-07T08:50:58.687Z,28.11
2019-04-07T08:53:26.982Z,27.40
2019-04-07T08:55:56.998Z,27.21
2019-04-07T08:58:29.000Z,26.49
2019-04-07T09:00:57.467Z,26.49
2019-04-07T09:03:26.606Z,26.36
2019-04-07T09:05:57.425Z,26.58
2019-04-07T09:08:26.666Z,26.65
2019-04-07T09:11:04.584Z,26.02
2019-04-07T09:13:34.262Z,25.83
2019-04-07T09:16:21.009Z,25.68
2019-04-07T09:19:04.385Z,25.42
2019-04-07T09:21:52.540Z,25.00
2019-04-07T09:24:41.642Z,24.62
2019-04-07T09:27:30.040Z,24.41
2019-04-07T09:30:18.384Z,24.27
2019-04-07T09:33:05.993Z,24.19
2019-04-07T09:36:03.655Z,23.73
2019-04-07T09:38:58.045Z,23.39
2019-04-07T09:41:36.362Z,22.61
2019-04-07T09:44:25.405Z,22.51
2019-04-07T09:47:15.907Z,22.72
2019-04-07T09:50:11.348Z,22.97
2019-04-07T09:53:08.724Z,23.04
2019-04-07T09:56:08.865Z,22.68
2019-04-07T09:58:53.452Z,22.43
2019-04-07T10:01:31.988Z,22.23
2019-04-07T10:04:32.312Z,22.06
2019-04-07T10:07:29.565Z,22.00
2019-04-07T10:10:17.169Z,22.12
2019-04-07T10:13:00.633Z,22.08
2019-04-07T10:15:57.704Z,22.14
2019-04-07T10:18:46.004Z,22.19
2019-04-07T10:21:32.777Z,22.17
2019-04-07T10:24:17.007Z,22.06
2019-04-07T10:27:03.577Z,21.92
2019-04-07T10:29:39.831Z,21.77
2019-04-07T10:32:25.593Z,21.96
2019-04-07T10:35:09.886Z,22.12
2019-04-07T10:38:01.745Z,21.93
2019-04-07T10:40:56.689Z,22.06
2019-04-07T10:43:56.818Z,21.94
2019-04-07T10:46:43.901Z,22.02
2019-04-07T10:49:35.142Z,22.04
2019-04-07T10:52:21.568Z,22.08
2019-04-07T10:55:16.574Z,22.11
2019-04-07T10:58:05.470Z,22.14
2019-04-07T11:00:52.665Z,22.04
2019-04-07T11:03:51.699Z,22.08
2019-04-07T11:06:40.900Z,22.25
2019-04-07T11:09:32.146Z,22.72
2019-04-07T11:12:15.454Z,22.93
2019-04-07T11:15:02.530Z,23.06
2019-04-07T11:17:41.984Z,23.14
2019-04-07T11:20:29.926Z,23.07
2019-04-07T11:23:16.568Z,23.17
2019-04-07T11:26:07.914Z,22.91
2019-04-07T11:28:56.780Z,22.52
2019-04-07T11:31:46.006Z,22.51
2019-04-07T11:34:36.913Z,22.67
2019-04-07T11:37:12.968Z,23.07
2019-04-07T11:39:52.329Z,23.27
2019-04-07T11:42:58.976Z,23.56
2019-04-07T11:45:37.782Z,23.65
2019-04-07T11:48:28.453Z,23.59
2019-04-07T11:51:20.534Z,23.62
2019-04-07T11:54:27.089Z,23.49
2019-04-07T11:57:05.565Z,23.49
2019-04-07T11:59:41.541Z,23.25
2019-04-07T12:02:45.496Z,23.06
2019-04-07T12:05:33.724Z,23.00
2019-04-07T12:08:35.213Z,22.75
2019-04-07T12:11:18.313Z,22.90
2019-04-07T12:14:17.039Z,22.37
2019-04-07T12:17:09.428Z,22.46
2019-04-07T12:19:57.171Z,22.62
2019-04-07T12:22:52.764Z,22.68
2019-04-07T12:26:00.112Z,22.55
2019-04-07T12:28:49.936Z,22.55
2019-04-07T12:31:29.807Z,22.59
2019-04-07T12:34:33.334Z,22.55
2019-04-07T12:37:11.023Z,22.48
2019-04-07T12:39:50.943Z,22.24
2019-04-07T12:42:47.093Z,22.21
2019-04-07T12:45:28.510Z,22.24
2019-04-07T12:48:10.305Z,22.25
2019-04-07T12:51:01.990Z,22.17
2019-04-07T12:53:50.427Z,22.06
2019-04-07T12:56:42.285Z,22.38
2019-04-07T12:59:39.467Z,22.64
2019-04-07T13:02:28.493Z,22.89
2019-04-07T13:05:15.439Z,23.15
2019-04-07T13:08:00.493Z,23.32
2019-04-07T13:10:49.404Z,23.33
2019-04-07T13:13:37.439Z,23.17
2019-04-07T13:16:26.464Z,23.03
2019-04-07T13:19:24.195Z,22.86
2019-04-07T13:22:13.146Z,23.00
2019-04-07T13:25:13.115Z,23.18
2019-04-07T13:28:04.350Z,23.25
2019-04-07T13:31:07.548Z,23.33
2019-04-07T13:33:46.776Z,23.25
2019-04-07T13:36:51.851Z,23.26
2019-04-07T13:39:49.132Z,23.38
2019-04-07T13:42:37.718Z,23.19
2019-04-07T13:45:31.227Z,23.17
2019-04-07T13:48:13.564Z,23.15
2019-04-07T13:50:58.660Z,23.24
2019-04-07T13:53:52.710Z,23.36
2019-04-07T13:56:48.134Z,23.41
2019-04-07T13:59:32.677Z,23.50
2019-04-07T14:02:26.392Z,23.56
2019-04-07T14:04:59.895Z,23.56
2019-04-07T14:08:04.044Z,23.22
2019-04-07T14:11:01.442Z,22.92
2019-04-07T14:13:44.715Z,22.74
2019-04-07T14:16:32.282Z,22.70
2019-04-07T14:19:21.059Z,22.72
2019-04-07T14:22:09.000Z,22.81
2019-04-07T14:24:47.212Z,22.98
2019-04-07T14:27:39.637Z,22.86
2019-04-07T14:30:29.137Z,22.70
2019-04-07T14:33:15.509Z,22.69
2019-04-07T14:35:55.410Z,22.76
2019-04-07T14:38:53.042Z,22.84
2019-04-07T14:42:00.951Z,22.83
2019-04-07T14:44:30.355Z,22.93
2019-04-07T14:47:21.838Z,23.03
2019-04-07T14:50:23.192Z,22.82
2019-04-07T14:53:13.263Z,22.81
2019-04-07T14:55:52.217Z,22.74
2019-04-07T14:58:58.349Z,22.80
2019-04-07T15:02:04.661Z,22.84
2019-04-07T15:04:40.777Z,22.74
2019-04-07T15:07:28.047Z,22.75
2019-04-07T15:10:01.799Z,22.61
2019-04-07T15:12:34.975Z,22.47
2019-04-07T15:15:08.370Z,22.47
2019-04-07T15:17:36.960Z,22.55
2019-04-07T15:20:07.622Z,22.72
2019-04-07T15:22:36.781Z,22.52
2019-04-07T15:25:07.643Z,22.42
2019-04-07T15:27:36.984Z,22.28
2019-04-07T15:30:07.592Z,22.36
2019-04-07T15:32:36.691Z,22.34
2019-04-07T15:35:06.314Z,22.46
2019-04-07T15:37:36.587Z,22.61
2019-04-07T15:40:08.251Z,22.52
2019-04-07T15:42:42.797Z,22.54
2019-04-07T15:45:12.070Z,22.55
2019-04-07T15:47:40.417Z,22.52
2019-04-07T15:50:09.881Z,22.46
2019-04-07T15:52:42.141Z,22.41
2019-04-07T15:55:11.549Z,22.40
2019-04-07T15:57:40.919Z,22.42
2019-04-07T16:00:11.256Z,22.21
2019-04-07T16:02:42.167Z,22.08
2019-04-07T16:05:11.718Z,22.05
2019-04-07T16:07:41.648Z,21.94
2019-04-07T16:10:11.671Z,21.89
2019-04-07T16:12:47.427Z,21.90
2019-04-07T16:15:15.848Z,21.89
2019-04-07T16:17:46.507Z,21.73
2019-04-07T16:20:22.934Z,21.80
2019-04-07T16:22:47.953Z,21.86
2019-04-07T16:25:17.160Z,21.77
2019-04-07T16:27:47.488Z,21.73
2019-04-07T16:30:19.000Z,21.74
2019-04-07T16:32:48.099Z,21.60
2019-04-07T16:35:18.261Z,21.57
2019-04-07T16:37:47.926Z,21.46
2019-04-07T16:40:17.172Z,21.45
2019-04-07T16:43:03.058Z,21.36
2019-04-07T16:45:18.020Z,21.27
2019-04-07T16:47:47.805Z,21.17
2019-04-07T16:50:18.890Z,21.19
2019-04-07T16:52:48.486Z,21.15
2019-04-07T16:55:39.984Z,21.19
2019-04-07T16:58:09.702Z,21.11
2019-04-07T17:00:39.869Z,20.93
2019-04-07T17:03:10.036Z,20.87
2019-04-07T17:05:39.838Z,20.84
2019-04-07T17:08:09.083Z,20.82
2019-04-07T17:10:50.633Z,20.76
2019-04-07T17:13:32.105Z,20.62
2019-04-07T17:15:52.878Z,20.52
2019-04-07T17:18:43.062Z,20.45
2019-04-07T17:21:15.651Z,20.41
2019-04-07T17:23:45.613Z,20.37
2019-04-07T17:26:15.161Z,20.37
2019-04-07T17:28:45.982Z,20.26
2019-04-07T17:31:15.385Z,20.18
2019-04-07T17:33:44.600Z,20.11
2019-04-07T17:36:17.673Z,20.06
2019-04-07T17:39:06.827Z,19.95
2019-04-07T17:41:36.077Z,19.97
2019-04-07T17:44:17.637Z,19.76
2019-04-07T17:47:04.910Z,19.71
2019-04-07T17:49:54.482Z,19.59
2019-04-07T17:52:44.686Z,19.46
2019-04-07T17:55:36.282Z,19.39
2019-04-07T17:58:27.510Z,19.37
2019-04-07T18:01:15.880Z,19.20
2019-04-07T18:04:02.681Z,19.07
2019-04-07T18:07:03.597Z,19.08
2019-04-07T18:09:43.801Z,18.96
2019-04-07T18:12:35.756Z,18.81
2019-04-07T18:15:31.611Z,18.73
2019-04-07T18:18:21.292Z,18.63
2019-04-07T18:21:13.328Z,18.54
2019-04-07T18:23:59.837Z,18.51
2019-04-07T18:26:32.986Z,18.42
2019-04-07T18:29:15.524Z,18.30
2019-04-07T18:31:51.998Z,18.21
2019-04-07T18:34:58.416Z,18.17
2019-04-07T18:37:41.212Z,18.11
2019-04-07T18:40:37.254Z,18.02
2019-04-07T18:43:15.710Z,17.92
2019-04-07T18:46:18.168Z,17.86
2019-04-07T18:49:15.818Z,17.78
2019-04-07T18:52:04.057Z,17.68
2019-04-07T18:54:53.212Z,17.57
2019-04-07T18:57:42.661Z,17.50
2019-04-07T19:00:35.089Z,17.39
2019-04-07T19:03:11.809Z,17.27
2019-04-07T19:06:16.551Z,17.18
2019-04-07T19:09:01.006Z,17.08
2019-04-07T19:12:13.385Z,16.97
2019-04-07T19:14:59.734Z,16.90
2019-04-07T19:17:42.482Z,16.81
2019-04-07T19:20:37.295Z,16.72
2019-04-07T19:23:26.314Z,16.65
2019-04-07T19:26:29.176Z,16.57
2019-04-07T19:29:10.487Z,16.54
2019-04-07T19:32:05.836Z,16.50
2019-04-07T19:34:57.271Z,16.47
2019-04-07T19:37:48.404Z,16.40
2019-04-07T19:40:31.464Z,16.29
2019-04-07T19:43:22.774Z,16.17
2019-04-07T19:46:05.257Z,16.08
2019-04-07T19:48:52.337Z,16.00
2019-04-07T19:51:48.211Z,15.91
2019-04-07T19:54:39.952Z,15.82
2019-04-07T19:57:31.168Z,15.76
2019-04-07T20:00:10.981Z,15.69
2019-04-07T20:02:53.164Z,15.58
2019-04-07T20:05:40.844Z,15.47
2019-04-07T20:08:26.928Z,15.40
2019-04-07T20:11:07.617Z,15.30
2019-04-07T20:14:12.558Z,15.19
2019-04-07T20:17:00.984Z,15.08
2019-04-07T20:19:56.231Z,15.00
2019-04-07T20:22:39.304Z,14.94
2019-04-07T20:25:24.568Z,14.83
2019-04-07T20:28:17.458Z,14.76
2019-04-07T20:31:20.828Z,14.67
2019-04-07T20:33:55.021Z,14.59
2019-04-07T20:36:46.197Z,14.52
2019-04-07T20:39:29.481Z,14.45
2019-04-07T20:42:21.955Z,14.38
2019-04-07T20:45:04.248Z,14.29
2019-04-07T20:47:54.553Z,14.22
2019-04-07T20:50:43.314Z,14.18
2019-04-07T20:53:31.101Z,14.12
2019-04-07T20:56:16.850Z,14.02
2019-04-07T20:59:11.769Z,13.50
2019-04-07T21:02:06.704Z,13.81
2019-04-07T21:04:58.162Z,13.70
2019-04-07T21:07:34.186Z,13.67
2019-04-07T21:10:29.498Z,13.66
2019-04-07T21:13:21.603Z,13.64
2019-04-07T21:16:08.195Z,13.61
2019-04-07T21:19:06.851Z,13.56
2019-04-07T21:22:05.515Z,13.52
2019-04-07T21:24:52.977Z,13.50
2019-04-07T21:27:33.756Z,13.47
2019-04-07T21:30:22.758Z,13.44
2019-04-07T21:33:09.493Z,13.39
2019-04-07T21:36:09.126Z,13.31
2019-04-07T21:39:05.821Z,13.26
2019-04-07T21:41:54.173Z,13.17
2019-04-07T21:44:38.490Z,13.11
2019-04-07T21:47:18.545Z,13.06
2019-04-07T21:50:24.232Z,13.01
2019-04-07T21:52:59.189Z,12.98
2019-04-07T21:55:41.818Z,12.91
2019-04-07T21:58:47.546Z,12.83
2019-04-07T22:01:30.411Z,12.74
2019-04-07T22:04:19.949Z,12.62
2019-04-07T22:07:07.154Z,12.57
2019-04-07T22:09:57.626Z,11.86
2019-04-07T22:12:30.211Z,12.49
2019-04-07T22:14:57.680Z,12.41
2019-04-07T22:17:27.525Z,12.33
2019-04-07T22:19:56.908Z,12.27
2019-04-07T22:22:26.868Z,12.24
2019-04-07T22:24:56.898Z,12.20
2019-04-07T22:27:28.313Z,12.16
2019-04-07T22:29:59.462Z,12.11
2019-04-07T22:32:27.704Z,12.06
2019-04-07T22:34:56.849Z,12.00
2019-04-07T22:37:26.242Z,11.97
2019-04-07T22:39:59.090Z,11.94
2019-04-07T22:42:26.255Z,11.88
2019-04-07T22:44:56.051Z,11.83
2019-04-07T22:47:25.180Z,11.77
2019-04-07T22:49:54.322Z,11.71
2019-04-07T22:52:23.758Z,11.65
2019-04-07T22:54:52.910Z,11.58
2019-04-07T22:57:22.046Z,11.53
2019-04-07T22:59:51.177Z,11.52
2019-04-07T23:02:20.284Z,11.51
2019-04-07T23:04:50.281Z,11.46
2019-04-07T23:07:20.192Z,11.43
2019-04-07T23:09:49.651Z,9.87
2019-04-07T23:12:18.982Z,11.36
2019-04-07T23:14:48.086Z,11.33
2019-04-07T23:17:17.618Z,11.31
2019-04-07T23:19:46.830Z,11.27
2019-04-07T23:22:15.950Z,11.24
2019-04-07T23:24:45.303Z,11.18
2019-04-07T23:27:14.573Z,11.07
2019-04-07T23:29:44.377Z,10.96
2019-04-07T23:32:13.496Z,10.91
2019-04-07T23:34:43.461Z,10.89
2019-04-07T23:37:14.313Z,10.88
2019-04-07T23:39:43.970Z,10.80
2019-04-07T23:42:13.190Z,10.69
2019-04-07T23:44:42.298Z,10.62
2019-04-07T23:47:11.434Z,10.57
2019-04-07T23:49:40.562Z,10.56
2019-04-07T23:52:09.663Z,10.57
2019-04-07T23:54:39.722Z,10.55
2019-04-07T23:57:08.901Z,10.55
2019-04-07T23:59:38.893Z,10.52
